Tiempo atmosférico en la estación meteorológica de Abla, Almería (885 m.)



Fecha
DESCASC
Temp. máxima en grados centígrados (hora)
DESCASC
Temp. mínima en grados centígrados (hora)
DESCASC
Temp. media en grados centígrados
DESCASC
Racha de viento máxima en m/sg (hora)
DESCASC
Velocidad máxima media en intervalos de 10 minutos(hora)
DESCASC
Precipitaciones diarias en mm
DESCASC
Precipitaciones de 00:00 a 06:00 en mm
DESCASC
Precipitaciones de 06:00 a 12:00 en mm
DESCASC
Precipitaciones de 12:00 a 18:00 en mm
DESCASC
Precipitaciones de 18:00 a 24:00 en mm
DESCASC
22-04-2019 16.9 (18:00) 8.6 (08:20) 12.8 7.78 (17:10) 3.61 (13:50) 0 0 0 0 0
21-04-2019 14.8 (15:00) 9 (07:40) 11.9 4.17 (18:50) 2.22 (19:10) 6.2 3.9 2.3 0 0
20-04-2019 15.9 (15:40) 7.6 (09:10) 11.7 10.56 (19:30) 5 (19:50) 10.6 0.6 9.7 0.1 0.2
19-04-2019 15.6 (12:00) 6.8 (08:00) 11.2 8.06 (14:40) 4.72 (14:50) 0 0 0 0 0
18-04-2019 15.3 (03:10) 6.3 (00:00) 10.8 11.39 (06:40) 5.28 (06:40) 20.4 0.1 15.5 4.8 0
17-04-2019 24 (15:40) 9.5 (00:00) 16.8 11.67 (14:40) 6.39 (13:10) 0 0 0 0 0
16-04-2019 21.2 (15:50) 10.8 (00:00) 16 11.67 (13:40) 6.11 (12:00) 0 0 0 0 0
15-04-2019 27.7 (15:30) 12.6 (00:00) 20.2 14.44 (18:40) 5.28 (19:40) 0 0 0 0 0
14-04-2019 25 (14:40) 10.7 (00:00) 17.8 7.5 (18:00) 3.61 (18:00) 0 0 0 0 0
13-04-2019 22.7 (15:50) 8.4 (00:00) 15.6 8.61 (18:20) 3.89 (18:50) 0 0 0 0 0
12-04-2019 20.6 (15:30) 7.3 (00:00) 14 6.67 (17:20) 2.5 (02:20) 0 0 0 0 0
11-04-2019 18.3 (15:40) 6.2 (00:00) 12.2 8.06 (02:40) 3.61 (16:50) 0.1 0.1 0 0 0
10-04-2019 17.5 (15:40) 7.2 (00:00) 12.3 8.61 (17:20) 4.17 (17:10) 0.1 0.1 0 0 0
09-04-2019 17.5 (14:50) 7.8 (00:00) 12.7 10.28 (18:00) 4.72 (16:10) 0 0 0 0 0
08-04-2019 19.1 (13:10) 9.9 (00:00) 14.5 7.5 (11:20) 3.06 (17:40) 0 0 0 0 0
07-04-2019 14.9 (16:00) 4.3 (00:00) 9.6 13.89 (09:40) 5.83 (09:20) 0.8 0.6 0.2 0 0
06-04-2019 14.5 (13:10) 4.2 (00:00) 9.3 10.83 (07:40) 5.28 (10:20) 4.9 0 0 0.3 4.6
05-04-2019 13 (11:00) 5.4 (00:00) 9.2 7.22 (15:40) 3.33 (21:10) 3.8 0 0 3.8 0
04-04-2019 14.9 (13:40) 7.1 (00:00) 11 10.83 (17:30) 5.28 (16:20) 0 0 0 0 0
03-04-2019 22.5 (15:50) 8.9 (00:00) 15.7 7.22 (20:00) 3.61 (19:50) 0 0 0 0 0
02-04-2019 21.3 (15:40) 6.1 (00:00) 13.7 4.17 (07:40) 2.22 (08:00) 0.1 0 0.1 0 0
01-04-2019 16.9 (14:00) 7.9 (00:00) 12.4 8.33 (17:30) 4.44 (17:20) 3.6 0 0 0 3.6
31-03-2019 13.3 (19:10) 7.5 (00:00) 10.4 6.11 (00:20) 3.33 (00:30) 6 1.7 1.9 1.3 1.1
30-03-2019 16.4 (15:00) 4 (00:00) 10.2 12.22 (15:50) 6.39 (16:00) 0 0 0 0 0
29-03-2019 15.9 (14:50) 4.3 (00:00) 10.1 11.39 (14:50) 5.28 (13:40) 0 0 0 0 0
28-03-2019 15.1 (14:30) 1.9 (00:00) 8.5 11.39 (11:30) 5.28 (11:40) 0 0 0 0 0
27-03-2019 15.8 (14:10) 5.2 (00:00) 10.5 12.5 (11:30) 5.28 (12:00) 0 0 0 0 0

Gráficas

Temp. máximas Temp. mínimas Temp. medias Precipitaciones Rachas de viento máximas Velocidades máximas media en intervalos de 10 minutos

Datos horarios

Fecha y hora oficial Temperatura (ºC) Velocidad del viento (km/h) Dirección del viento Racha (km/h) Dirección de racha Precipitación (mm) Presión (hPa) Tendencia (hPa) Humedad (%)
2019-04-25 23:00:00 12 5 Noroeste 19 Noroeste 0 -- -- 49
2019-04-25 22:00:00 12.6 7 Noroeste 32 Noroeste 0 -- -- 49
2019-04-25 21:00:00 13.2 14 Noroeste 29 Norte 0 -- -- 49
2019-04-25 20:00:00 14.2 12 Noroeste 26 Noroeste 0 -- -- 48
2019-04-25 19:00:00 15.4 14 Noroeste 31 Noroeste 0 -- -- 48
2019-04-25 18:00:00 16.8 14 Noroeste 33 Noroeste 0 -- -- 45
2019-04-25 17:00:00 17.9 10 Noroeste 23 Norte 0 -- -- 46
2019-04-25 16:00:00 17.3 7 Noroeste 28 Norte 0 -- -- 49
2019-04-25 15:00:00 15.9 12 Noroeste 30 Norte 0 -- -- 53
2019-04-25 14:00:00 15 11 Noroeste 27 Noroeste 0 -- -- 54
2019-04-25 13:00:00 16 9 Noroeste 23 Norte 0 -- -- 53
2019-04-25 12:00:00 17.8 2 Nordeste 24 Noroeste 0 -- -- 48
2019-04-25 11:00:00 17.2 10 Norte 25 Norte 0 -- -- 48
2019-04-25 10:00:00 15.4 4 Nordeste 12 Nordeste 0 -- -- 59
2019-04-25 09:00:00 11.9 2 Noroeste 12 Noroeste 0 -- -- 67
2019-04-25 08:00:00 9.6 0 Calma 9 Oeste 0 -- -- 76
2019-04-25 07:00:00 8.5 4 Noroeste 16 Nordeste 0 -- -- 78
2019-04-25 06:00:00 8.5 3 Norte 12 Norte 0 -- -- 79
2019-04-25 05:00:00 8.6 2 Noroeste 9 Noroeste 0 -- -- 78
2019-04-25 04:00:00 9.6 0 Calma 7 Oeste 0 -- -- 71
2019-04-25 03:00:00 9 0 Calma 8 Oeste 0 -- -- 77
2019-04-25 02:00:00 10.5 0 Calma 10 Oeste 0 -- -- 71
2019-04-25 01:00:00 10.8 0 Calma 9 Noroeste 0 -- -- 65
2019-04-25 00:00:00 11.4 0 Calma 9 Noroeste 0 -- -- 62
2019-04-24 23:00:00 12.5 0 Calma 10 Noroeste 0 -- -- 58
2019-04-24 22:00:00 13.4 0 Calma 7 Noroeste 0 -- -- 53
2019-04-24 21:00:00 14.3 0 Calma 17 Nordeste 0 -- -- 49
2019-04-24 20:00:00 15.6 8 Este 21 Este 0 -- -- 45
2019-04-24 19:00:00 18.5 5 Nordeste 20 Este 0 -- -- 41
2019-04-24 18:00:00 19.7 2 Nordeste 24 Nordeste 0 -- -- 36
2019-04-24 17:00:00 18 4 Nordeste 18 Nordeste 0 -- -- 39
2019-04-24 16:00:00 18 6 Nordeste 17 Nordeste 0 -- -- 37
2019-04-24 15:00:00 17.8 5 Nordeste 18 Nordeste 0 -- -- 36
2019-04-24 14:00:00 17.4 6 Nordeste 22 Nordeste 0 -- -- 36
2019-04-24 13:00:00 15 6 Nordeste 22 Este 0 -- -- 37
2019-04-24 12:00:00 14.8 2 Norte 12 Oeste 0 -- -- 41
2019-04-24 11:00:00 12.2 3 Noroeste 15 Oeste 0 -- -- 45
2019-04-24 10:00:00 10.9 8 Noroeste 15 Noroeste 0 -- -- 51
2019-04-24 09:00:00 9.6 0 Calma 6 Oeste 0 -- -- 58
2019-04-24 08:00:00 5.8 2 Noroeste 13 Norte 0 -- -- 66
2019-04-24 07:00:00 5.5 3 Noroeste 13 Noroeste 0 -- -- 65
2019-04-24 06:00:00 6.1 3 Noroeste 18 Norte 0 -- -- 63
2019-04-24 05:00:00 6.3 3 Norte 18 Noroeste 0 -- -- 60
2019-04-24 04:00:00 6.4 8 Noroeste 23 Noroeste 0 -- -- 61
2019-04-24 03:00:00 5.9 5 Noroeste 15 Norte 0 -- -- 63
2019-04-24 02:00:00 6.3 2 Noroeste 13 Noroeste 0 -- -- 62
2019-04-24 01:00:00 7.2 4 Noroeste 15 Noroeste 0 -- -- 60
2019-04-24 00:00:00 7.1 4 Noroeste 17 Noroeste 0 -- -- 60
2019-04-23 23:00:00 7.5 5 Noroeste 24 Noroeste 0 -- -- 60
2019-04-23 22:00:00 7.5 5 Noroeste 20 Noroeste 0 -- -- 63
2019-04-23 21:00:00 9.6 8 Noroeste 22 Noroeste 0 -- -- 53
2019-04-23 20:00:00 10.6 10 Noroeste 27 Norte 0 -- -- 49
2019-04-23 19:00:00 12.1 10 Noroeste 22 Noroeste 0 -- -- 41
2019-04-23 18:00:00 13.3 8 Noroeste 25 Noroeste 0 -- -- 40
2019-04-23 17:00:00 13.1 9 Noroeste 21 Norte 0 -- -- 49
2019-04-23 16:00:00 11.9 4 Nordeste 17 Norte 0.2 -- -- 67
2019-04-23 15:00:00 9 11 Noroeste 22 Noroeste 0.3 -- -- 79
2019-04-23 14:00:00 10.1 2 Norte 15 Norte 1.7 -- -- 85
2019-04-23 13:00:00 9.5 4 Noroeste 23 Norte 0.2 -- -- 76
2019-04-23 12:00:00 9.4 6 Noroeste 23 Noroeste 0.1 -- -- 79
2019-04-23 11:00:00 12 3 Nordeste 19 Nordeste 0 -- -- 56
2019-04-23 10:00:00 10.7 2 Nordeste 11 Nordeste 0 -- -- 66
2019-04-23 09:00:00 10.3 3 Norte 10 Norte 0 -- -- 68
2019-04-23 08:00:00 10 4 Noroeste 18 Noroeste 0 -- -- 62
2019-04-23 07:00:00 10.1 3 Norte 17 Norte 0 -- -- 61
2019-04-23 06:00:00 10.9 3 Norte 14 Noroeste 0 -- -- 57
2019-04-23 05:00:00 10.9 2 Noroeste 12 Noroeste 0 -- -- 59
2019-04-23 04:00:00 10.6 2 Noroeste 15 Noroeste 0 -- -- 61
2019-04-23 03:00:00 10.8 4 Noroeste 13 Norte 0 -- -- 63
2019-04-23 02:00:00 11.4 3 Noroeste 10 Noroeste 0 -- -- 61
2019-04-23 01:00:00 12 0 Calma 14 Noroeste 0 -- -- 59
2019-04-23 00:00:00 11.8 0 Calma 7 Noroeste 0 -- -- 58
2019-04-22 23:00:00 12 0 Calma 9 Noroeste 0 -- -- 54
2019-04-22 22:00:00 13.2 3 Noroeste 12 Noroeste 0 -- -- 51
2019-04-22 21:00:00 13.7 4 Norte 14 Noroeste 0 -- -- 51
2019-04-22 20:00:00 14.2 7 Noroeste 22 Noroeste 0 -- -- 48
2019-04-22 19:00:00 15.8 8 Noroeste 23 Norte 0 -- -- 44
2019-04-22 18:00:00 16.4 11 Noroeste 28 Noroeste 0 -- -- 44
2019-04-22 17:00:00 15.3 10 Noroeste 26 Noroeste 0 -- -- 48
2019-04-22 16:00:00 15.3 9 Norte 24 Norte 0 -- -- 49
2019-04-22 15:00:00 14.3 10 Noroeste 25 Noroeste 0 -- -- 50
2019-04-22 14:00:00 14.8 9 Noroeste 27 Norte 0 -- -- 50
2019-04-22 13:00:00 15.5 9 Noroeste 22 Norte 0 -- -- 50
2019-04-22 12:00:00 13.7 9 Noroeste 22 Noroeste 0 -- -- 53
2019-04-22 11:00:00 11.7 10 Noroeste 24 Norte 0 -- -- 61
2019-04-22 10:00:00 10.1 9 Noroeste 21 Noroeste 0 -- -- 67
2019-04-22 09:00:00 8.8 9 Noroeste 22 Norte 0 -- -- 75
2019-04-22 08:00:00 8.9 9 Noroeste 23 Noroeste 0 -- -- 71
2019-04-22 07:00:00 9.4 6 Noroeste 16 Noroeste 0 -- -- 71
2019-04-22 06:00:00 9.5 8 Noroeste 20 Noroeste 0 -- -- 72
2019-04-22 05:00:00 9.7 6 Noroeste 20 Noroeste 0 -- -- 76
2019-04-22 04:00:00 9.6 2 Noroeste 14 Noroeste 0 -- -- 78
2019-04-22 03:00:00 10 6 Noroeste 14 Noroeste 0 -- -- 76
2019-04-22 02:00:00 10 6 Noroeste 16 Noroeste 0 -- -- 79
2019-04-22 01:00:00 9.7 8 Noroeste 16 Noroeste 0 -- -- 79
2019-04-22 00:00:00 10.5 6 Noroeste 12 Noroeste 0 -- -- 71
2019-04-21 23:00:00 11 0 Calma 10 Noroeste 0 -- -- 68
2019-04-21 22:00:00 11.3 5 Noroeste 12 Norte 0 -- -- 66
2019-04-21 21:00:00 11.8 3 Noroeste 11 Noroeste 0 -- -- 64
2019-04-21 20:00:00 12.1 0 Calma 14 Norte 0 -- -- 63
2019-04-21 19:00:00 12.5 5 Noroeste 15 Noroeste 0 -- -- 60
2019-04-21 18:00:00 13.6 6 Noroeste 14 Noroeste 0 -- -- 59
2019-04-21 17:00:00 13.1 0 Calma 7 Norte 0 -- -- 60
2019-04-21 16:00:00 13.2 3 Noroeste 11 Noroeste 0 -- -- 60
2019-04-21 15:00:00 14.8 0 Calma 9 Norte 0 -- -- 61
2019-04-21 14:00:00 11.8 0 Calma 9 Norte 0 -- -- 73
2019-04-21 13:00:00 10.6 0 Calma 10 Norte 0 -- -- 78
2019-04-21 12:00:00 10.6 2 Noroeste 10 Norte 0.1 -- -- 78
2019-04-21 11:00:00 9.6 2 Norte 14 Norte 0 -- -- 82
2019-04-21 10:00:00 9.3 2 Norte 14 Norte 0.2 -- -- 85
2019-04-21 09:00:00 9.1 3 Norte 15 Noroeste 0.4 -- -- 89
2019-04-21 08:00:00 9.2 5 Noroeste 12 Noroeste 0.6 -- -- 93
2019-04-21 07:00:00 9.2 3 Noroeste 10 Oeste 1 -- -- 89
2019-04-21 06:00:00 9.4 3 Noroeste 12 Norte 0.9 -- -- 88
2019-04-21 05:00:00 9.7 2 Noroeste 15 Oeste 1.1 -- -- 86
2019-04-21 04:00:00 9.8 2 Noroeste 9 Oeste 0.9 -- -- 90
2019-04-21 03:00:00 10.1 0 Calma 10 Noroeste 0.8 -- -- 91
2019-04-21 02:00:00 10.5 3 Noroeste 14 Norte 0.1 -- -- 89
2019-04-21 01:00:00 10.4 0 Calma 9 Norte 0.1 -- -- 90
2019-04-21 00:00:00 10.3 0 Calma 7 Nordeste 0 -- -- 90
2019-04-20 23:00:00 10.5 2 Nordeste 11 Este 0 -- -- 89
2019-04-20 22:00:00 10.5 8 Nordeste 21 Este 0 -- -- 85
2019-04-20 21:00:00 10.9 13 Nordeste 37 Nordeste 0.2 -- -- 80
2019-04-20 20:00:00 12.5 16 Nordeste 38 Nordeste 0 -- -- 64
2019-04-20 19:00:00 12.9 12 Nordeste 32 Nordeste 0 -- -- 64
2019-04-20 18:00:00 13.8 12 Nordeste 28 Nordeste 0 -- -- 56
2019-04-20 17:00:00 13.4 12 Nordeste 35 Nordeste 0 -- -- 60
2019-04-20 16:00:00 14.2 8 Este 22 Nordeste 0 -- -- 59
2019-04-20 15:00:00 12.7 3 Nordeste 14 Este 0.1 -- -- 71
2019-04-20 14:00:00 10.9 8 Nordeste 26 Nordeste 0 -- -- 79
2019-04-20 13:00:00 10.9 9 Nordeste 21 Este 0 -- -- 75
2019-04-20 12:00:00 11.7 2 Norte 13 Noroeste 0 -- -- 70
2019-04-20 11:00:00 10.8 6 Noroeste 15 Noroeste 0.3 -- -- 82
2019-04-20 10:00:00 8.3 6 Noroeste 15 Noroeste 2.1 -- -- 88
2019-04-20 09:00:00 7.7 4 Noroeste 25 Noroeste 2.9 -- -- 82
2019-04-20 08:00:00 8.2 4 Norte 20 Noroeste 2.9 -- -- 83
2019-04-20 07:00:00 8.9 8 Noroeste 20 Noroeste 1.5 -- -- 87
2019-04-20 06:00:00 9.1 8 Noroeste 18 Noroeste 0.6 -- -- 85
2019-04-20 05:00:00 9.6 8 Noroeste 19 Norte 0 -- -- 78
2019-04-20 04:00:00 10.1 8 Noroeste 16 Noroeste 0 -- -- 72
2019-04-20 03:00:00 9.5 7 Noroeste 19 Noroeste 0 -- -- 78
2019-04-20 02:00:00 9.5 6 Noroeste 15 Norte 0 -- -- 76
2019-04-20 01:00:00 9.3 7 Noroeste 15 Noroeste 0 -- -- 79
2019-04-20 00:00:00 9.7 3 Noroeste 13 Norte 0 -- -- 74
2019-04-19 23:00:00 9.8 2 Noroeste 10 Norte 0 -- -- 75
2019-04-19 22:00:00 10.4 0 Calma 5 Noroeste 0 -- -- 78
2019-04-19 21:00:00 10.6 3 Este 17 Este 0 -- -- 73
2019-04-19 20:00:00 11.4 10 Nordeste 22 Este 0 -- -- 64
2019-04-19 19:00:00 12.5 9 Nordeste 24 Nordeste 0 -- -- 59
2019-04-19 18:00:00 13.1 10 Nordeste 23 Este 0 -- -- 59
2019-04-19 17:00:00 12.7 11 Nordeste 24 Nordeste 0 -- -- 56
2019-04-19 16:00:00 12.9 12 Nordeste 28 Nordeste 0 -- -- 64
2019-04-19 15:00:00 12.9 12 Norte 29 Noroeste 0 -- -- 52
2019-04-19 14:00:00 13 8 Nordeste 23 Este 0 -- -- 51
2019-04-19 13:00:00 13.4 9 Nordeste 20 Este 0 -- -- 49
2019-04-19 12:00:00 15.6 5 Nordeste 22 Nordeste 0 -- -- 44
2019-04-19 11:00:00 13.7 4 Norte 10 Noroeste 0 -- -- 48
2019-04-19 10:00:00 11.8 2 Norte 11 Norte 0 -- -- 59
2019-04-19 09:00:00 9.1 2 Noroeste 9 Noroeste 0 -- -- 72
2019-04-19 08:00:00 7 0 Calma 5 Noroeste 0 -- -- 80
2019-04-19 07:00:00 7.6 0 Calma 9 Noroeste 0 -- -- 76
2019-04-19 06:00:00 7.4 2 Noroeste 9 Oeste 0 -- -- 77
2019-04-19 05:00:00 7.3 4 Oeste 12 Oeste 0 -- -- 76
2019-04-19 04:00:00 7.5 0 Calma 8 Oeste 0 -- -- 76
2019-04-19 03:00:00 7.7 0 Calma 14 Noroeste 0 -- -- 73
2019-04-19 02:00:00 7.9 5 Noroeste 16 Noroeste 0 -- -- 71
2019-04-19 01:00:00 8.2 4 Noroeste 13 Noroeste 0 -- -- 72
2019-04-19 00:00:00 8.6 4 Norte 15 Noroeste 0 -- -- 75
2019-04-18 23:00:00 9.4 7 Noroeste 17 Norte 0 -- -- 71
2019-04-18 22:00:00 9.7 5 Norte 23 Norte 0 -- -- 68
2019-04-18 21:00:00 10 8 Noroeste 21 Noroeste 0 -- -- 67
2019-04-18 20:00:00 11.5 9 Nordeste 15 Este 0 -- -- 81
2019-04-18 19:00:00 12.3 8 Nordeste 19 Nordeste 0 -- -- 81
2019-04-18 18:00:00 11.6 3 Nordeste 15 Este 0.1 -- -- 79
2019-04-18 17:00:00 11 6 Nordeste 16 Nordeste 0.7 -- -- 85
2019-04-18 16:00:00 12.5 6 Nordeste 15 Este 0.2 -- -- 63
2019-04-18 15:00:00 11 3 Norte 12 Noroeste 0 -- -- 67
2019-04-18 14:00:00 8.2 3 Norte 16 Este 0.2 -- -- 90
2019-04-18 13:00:00 7.3 0 Calma 14 Norte 3.6 -- -- 88
2019-04-18 12:00:00 6.9 4 Noroeste 23 Norte 5.5 -- -- 89
2019-04-18 11:00:00 7.6 10 Noroeste 22 Norte 3.3 -- -- 87
2019-04-18 10:00:00 8 8 Noroeste 31 Norte 3.4 -- -- 87
2019-04-18 09:00:00 10.8 10 Nordeste 29 Nordeste 3 -- -- 94
2019-04-18 08:00:00 11 10 Nordeste 27 Este 0.3 -- -- 93
2019-04-18 07:00:00 10.8 14 Este 41 Este 0 -- -- 93
2019-04-18 06:00:00 11.6 13 Nordeste 27 Nordeste 0 -- -- 85
2019-04-18 05:00:00 13.7 0 Calma 14 Noroeste 0.1 -- -- 79
2019-04-18 04:00:00 14 4 Noroeste 9 Norte 0 -- -- 76
2019-04-18 03:00:00 15.1 2 Noroeste 10 Norte 0 -- -- 60
2019-04-18 02:00:00 14.6 0 Calma 9 Norte 0 -- -- 61
2019-04-18 01:00:00 14.5 2 Noroeste 12 Nordeste 0 -- -- 60
2019-04-18 00:00:00 14.6 3 Nordeste 19 Nordeste 0 -- -- 59
2019-04-17 23:00:00 14.8 13 Nordeste 30 Este 0 -- -- 59
2019-04-17 22:00:00 15.7 6 Nordeste 15 Este 0 -- -- 59
2019-04-17 21:00:00 17 7 Este 20 Nordeste 0 -- -- 53
2019-04-17 20:00:00 19.3 8 Nordeste 23 Nordeste 0 -- -- 40
2019-04-17 19:00:00 21.5 8 Nordeste 22 Este 0 -- -- 35
2019-04-17 18:00:00 22.7 11 Nordeste 29 Nordeste 0 -- -- 34
2019-04-17 17:00:00 22.8 17 Este 35 Nordeste 0 -- -- 33
2019-04-17 16:00:00 22.2 14 Nordeste 36 Nordeste 0 -- -- 34
2019-04-17 15:00:00 23.1 19 Nordeste 42 Nordeste 0 -- -- 33
2019-04-17 14:00:00 22.8 19 Este 40 Nordeste 0 -- -- 34
2019-04-17 13:00:00 21.1 21 Nordeste 41 Este 0 -- -- 34
2019-04-17 12:00:00 18.2 17 Nordeste 40 Nordeste 0 -- -- 38
2019-04-17 11:00:00 16.8 12 Nordeste 26 Este 0 -- -- 45
2019-04-17 10:00:00 14.2 6 Nordeste 15 Este 0 -- -- 58
2019-04-17 09:00:00 12.2 0 Calma 9 Este 0 -- -- 67
2019-04-17 08:00:00 10 3 Nordeste 8 Norte 0 -- -- 74
2019-04-17 07:00:00 10.1 0 Calma 9 Noroeste 0 -- -- 71
2019-04-17 06:00:00 9.8 0 Calma 9 Norte 0 -- -- 75
2019-04-17 05:00:00 9.8 2 Norte 10 Este 0 -- -- 77
2019-04-17 04:00:00 10.5 4 Norte 12 Norte 0 -- -- 74
2019-04-17 03:00:00 10 3 Nordeste 16 Nordeste 0 -- -- 82
2019-04-17 02:00:00 10.3 4 Nordeste 13 Nordeste 0 -- -- 77
2019-04-17 01:00:00 11.4 2 Noroeste 17 Este 0 -- -- 63
2019-04-17 00:00:00 12.2 5 Nordeste 17 Nordeste 0 -- -- 55
2019-04-16 23:00:00 13.2 6 Nordeste 21 Este 0 -- -- 51
2019-04-16 22:00:00 14.4 6 Este 21 Este 0 -- -- 49
2019-04-16 21:00:00 15.7 10 Este 30 Nordeste 0 -- -- 49
2019-04-16 20:00:00 16.8 17 Este 39 Este 0 -- -- 51
2019-04-16 19:00:00 18.6 18 Nordeste 42 Este 0 -- -- 49
2019-04-16 18:00:00 19.1 21 Este 39 Este 0 -- -- 46
2019-04-16 17:00:00 20.5 17 Nordeste 36 Nordeste 0 -- -- 42
2019-04-16 16:00:00 20.7 16 Nordeste 41 Este 0 -- -- 40
2019-04-16 15:00:00 19.8 19 Nordeste 39 Este 0 -- -- 41
2019-04-16 14:00:00 19.7 17 Nordeste 42 Este 0 -- -- 41
2019-04-16 13:00:00 19.3 19 Nordeste 42 Nordeste 0 -- -- 42
2019-04-16 12:00:00 18.7 22 Nordeste 39 Este 0 -- -- 42
2019-04-16 11:00:00 18.4 14 Nordeste 27 Nordeste 0 -- -- 44
2019-04-16 10:00:00 16.8 2 Nordeste 9 Norte 0 -- -- 55
2019-04-16 09:00:00 14.7 3 Noroeste 10 Norte 0 -- -- 61
2019-04-16 08:00:00 11.1 4 Noroeste 12 Oeste 0 -- -- 72
2019-04-16 07:00:00 11.9 6 Noroeste 17 Noroeste 0 -- -- 67
2019-04-16 06:00:00 12.5 6 Noroeste 20 Norte 0 -- -- 66
2019-04-16 05:00:00 12.3 8 Noroeste 18 Noroeste 0 -- -- 65
2019-04-16 04:00:00 12.9 9 Noroeste 16 Noroeste 0 -- -- 61
2019-04-16 03:00:00 13.6 3 Norte 17 Norte 0 -- -- 55
2019-04-16 02:00:00 14.8 5 Norte 18 Noroeste 0 -- -- 47
2019-04-16 01:00:00 15.6 6 Noroeste 22 Noroeste 0 -- -- 42
2019-04-16 00:00:00 16.5 6 Norte 17 Norte 0 -- -- 36
2019-04-15 23:00:00 17.8 9 Noroeste 20 Norte 0 -- -- 34
2019-04-15 22:00:00 19.4 3 Noroeste 32 Noroeste 0 -- -- 32
2019-04-15 21:00:00 21.1 12 Noroeste 47 Noroeste 0 -- -- 28
2019-04-15 20:00:00 22.4 18 Noroeste 51 Noroeste 0 -- -- 27
2019-04-15 19:00:00 23.9 17 Noroeste 52 Norte 0 -- -- 24
2019-04-15 18:00:00 25.7 9 Noroeste 27 Oeste 0 -- -- 23
2019-04-15 17:00:00 26.4 8 Noroeste 30 Oeste 0 -- -- 23
2019-04-15 16:00:00 27.2 8 Noroeste 40 Noroeste 0 -- -- 23
2019-04-15 15:00:00 24.9 10 Nordeste 23 Nordeste 0 -- -- 33
2019-04-15 14:00:00 23.1 11 Nordeste 25 Este 0 -- -- 36
2019-04-15 13:00:00 22.9 10 Nordeste 24 Nordeste 0 -- -- 36
2019-04-15 12:00:00 23.1 10 Nordeste 23 Nordeste 0 -- -- 37
2019-04-15 11:00:00 20.9 6 Este 15 Este 0 -- -- 42
2019-04-15 10:00:00 19.6 0 Calma 6 Nordeste 0 -- -- 49
2019-04-15 09:00:00 15.7 0 Calma 11 Noroeste 0 -- -- 53
2019-04-15 08:00:00 13.3 0 Calma 13 Oeste 0 -- -- 58
2019-04-15 07:00:00 13.8 0 Calma 13 Oeste 0 -- -- 56
2019-04-15 06:00:00 12.9 9 Noroeste 13 Noroeste 0 -- -- 59
2019-04-15 05:00:00 14.9 0 Calma 10 Noroeste 0 -- -- 55
2019-04-15 04:00:00 15.3 2 Noroeste 10 Oeste 0 -- -- 53
2019-04-15 03:00:00 16 0 Calma 9 Nordeste 0 -- -- 52
2019-04-15 02:00:00 16.3 2 Noroeste 10 Noroeste 0 -- -- 51
2019-04-15 01:00:00 17.2 2 Noroeste 14 Oeste 0 -- -- 49
2019-04-15 00:00:00 17.9 3 Noroeste 12 Noroeste 0 -- -- 48
2019-04-14 23:00:00 17.3 0 Calma 5 Oeste 0 -- -- 51
2019-04-14 22:00:00 17.7 0 Calma 8 Nordeste 0 -- -- 49
2019-04-14 21:00:00 18.8 3 Nordeste 16 Este 0 -- -- 46
2019-04-14 20:00:00 20 8 Este 22 Nordeste 0 -- -- 42
2019-04-14 19:00:00 22 8 Nordeste 26 Nordeste 0 -- -- 36
2019-04-14 18:00:00 23.2 13 Nordeste 27 Este 0 -- -- 30
2019-04-14 17:00:00 23.5 10 Nordeste 25 Este 0 -- -- 28
2019-04-14 16:00:00 24 12 Este 26 Este 0 -- -- 27
2019-04-14 15:00:00 23.3 9 Nordeste 24 Este 0 -- -- 26
2019-04-14 14:00:00 23.6 9 Nordeste 21 Nordeste 0 -- -- 26
2019-04-14 13:00:00 21.3 2 Noroeste 11 Oeste 0 -- -- 27
2019-04-14 12:00:00 21.7 3 Nordeste 9 Nordeste 0 -- -- 28
2019-04-14 11:00:00 20.6 4 Norte 14 Noroeste 0 -- -- 35
2019-04-14 10:00:00 18.2 2 Noroeste 12 Oeste 0 -- -- 39
2019-04-14 09:00:00 12.9 6 Noroeste 14 Noroeste 0 -- -- 45
2019-04-14 08:00:00 12.7 3 Noroeste 12 Norte 0 -- -- 44
2019-04-14 07:00:00 11.9 3 Norte 17 Oeste 0 -- -- 43
2019-04-14 06:00:00 11.3 5 Noroeste 15 Oeste 0 -- -- 43
2019-04-14 05:00:00 11.8 10 Oeste 15 Noroeste 0 -- -- 41
2019-04-14 04:00:00 13 4 Noroeste 15 Oeste 0 -- -- 38
2019-04-14 03:00:00 13.1 3 Noroeste 11 Oeste 0 -- -- 39
2019-04-14 02:00:00 13 3 Noroeste 17 Noroeste 0 -- -- 40
2019-04-14 01:00:00 13.1 6 Noroeste 15 Noroeste 0 -- -- 40
2019-04-14 00:00:00 13.9 4 Noroeste 21 Noroeste 0 -- -- 37
2019-04-13 23:00:00 15.5 5 Noroeste 20 Noroeste 0 -- -- 36
2019-04-13 22:00:00 14.8 5 Noroeste 12 Noroeste 0 -- -- 37
2019-04-13 21:00:00 15.4 0 Calma 15 Este 0 -- -- 34
2019-04-13 20:00:00 16.9 7 Nordeste 24 Nordeste 0 -- -- 32
2019-04-13 19:00:00 19 13 Nordeste 31 Este 0 -- -- 29
2019-04-13 18:00:00 19.6 6 Nordeste 29 Este 0 -- -- 27
2019-04-13 17:00:00 21.4 4 Norte 19 Nordeste 0 -- -- 24
2019-04-13 16:00:00 21.6 5 Norte 23 Noroeste 0 -- -- 23
2019-04-13 15:00:00 22 7 Norte 21 Noroeste 0 -- -- 23
2019-04-13 14:00:00 20.6 7 Norte 22 Noroeste 0 -- -- 27
2019-04-13 13:00:00 19.7 7 Norte 21 Noroeste 0 -- -- 30
2019-04-13 12:00:00 19.1 6 Norte 16 Noroeste 0 -- -- 33
2019-04-13 11:00:00 17.8 3 Norte 17 Norte 0 -- -- 35
2019-04-13 10:00:00 15.1 4 Norte 14 Norte 0 -- -- 39
2019-04-13 09:00:00 12.7 3 Noroeste 15 Norte 0 -- -- 44
2019-04-13 08:00:00 9.7 2 Noroeste 15 Oeste 0 -- -- 48
2019-04-13 07:00:00 9.1 5 Oeste 12 Nordeste 0 -- -- 47
2019-04-13 06:00:00 9.7 3 Noroeste 11 Noroeste 0 -- -- 47
2019-04-13 05:00:00 10.1 2 Noroeste 13 Noroeste 0 -- -- 46
2019-04-13 04:00:00 10.4 4 Norte 12 Noroeste 0 -- -- 47
2019-04-13 03:00:00 10.2 5 Noroeste 12 Norte 0 -- -- 49
2019-04-13 02:00:00 11.1 3 Sudoeste 15 Sudoeste 0 -- -- 46
2019-04-13 01:00:00 11 3 Sudoeste 18 Noroeste 0 -- -- 47
2019-04-13 00:00:00 12.6 3 Sur 15 Sur 0 -- -- 42
2019-04-12 23:00:00 13.2 2 Sudoeste 16 Sur 0 -- -- 42
2019-04-12 22:00:00 13 3 Sur 12 Sur 0 -- -- 43
2019-04-12 21:00:00 13.5 3 Nordeste 18 Este 0 -- -- 40
2019-04-12 20:00:00 16.2 2 Nordeste 18 Noroeste 0 -- -- 31
2019-04-12 19:00:00 18.9 4 Norte 18 Noroeste 0 -- -- 27
2019-04-12 18:00:00 19.1 5 Norte 24 Norte 0 -- -- 26
2019-04-12 17:00:00 18.8 7 Norte 19 Norte 0 -- -- 26
2019-04-12 16:00:00 20 6 Norte 22 Noroeste 0 -- -- 26
2019-04-12 15:00:00 19.6 8 Norte 20 Norte 0 -- -- 27
2019-04-12 14:00:00 19.3 5 Norte 19 Noroeste 0 -- -- 27
2019-04-12 13:00:00 18.2 6 Norte 18 Noroeste 0 -- -- 31
2019-04-12 12:00:00 16.8 6 Noroeste 21 Noroeste 0 -- -- 31
2019-04-12 11:00:00 15.4 8 Norte 20 Noroeste 0 -- -- 35
2019-04-12 10:00:00 13.5 5 Norte 16 Noroeste 0 -- -- 42
2019-04-12 09:00:00 10.4 6 Noroeste 16 Norte 0 -- -- 48
2019-04-12 08:00:00 8.6 3 Noroeste 14 Noroeste 0 -- -- 49
2019-04-12 07:00:00 8.1 3 Noroeste 14 Noroeste 0 -- -- 50
2019-04-12 06:00:00 7.7 4 Norte 13 Noroeste 0 -- -- 52
2019-04-12 05:00:00 8.1 4 Norte 15 Noroeste 0 -- -- 53
2019-04-12 04:00:00 8.2 5 Norte 15 Noroeste 0 -- -- 53
2019-04-12 03:00:00 8.5 4 Norte 18 Norte 0 -- -- 51
2019-04-12 02:00:00 9.3 6 Noroeste 18 Noroeste 0 -- -- 49
2019-04-12 01:00:00 9.9 8 Noroeste 15 Norte 0 -- -- 49
2019-04-12 00:00:00 10 6 Noroeste 14 Noroeste 0 -- -- 47
2019-04-11 23:00:00 11.4 4 Noroeste 17 Noroeste 0 -- -- 41
2019-04-11 22:00:00 11.7 3 Norte 23 Norte 0 -- -- 38
2019-04-11 21:00:00 12.6 7 Noroeste 19 Noroeste 0 -- -- 35
2019-04-11 20:00:00 13.9 9 Noroeste 21 Noroeste 0 -- -- 33
2019-04-11 19:00:00 15.7 7 Norte 24 Noroeste 0 -- -- 30
2019-04-11 18:00:00 16.6 5 Norte 27 Noroeste 0 -- -- 30
2019-04-11 17:00:00 16.9 12 Noroeste 27 Norte 0 -- -- 30
2019-04-11 16:00:00 17.6 9 Norte 24 Norte 0 -- -- 29
2019-04-11 15:00:00 17.2 10 Noroeste 27 Norte 0 -- -- 31
2019-04-11 14:00:00 17.3 8 Noroeste 27 Norte 0 -- -- 33
2019-04-11 13:00:00 15.6 9 Noroeste 24 Noroeste 0 -- -- 36
2019-04-11 12:00:00 15.4 9 Norte 24 Noroeste 0 -- -- 41
2019-04-11 11:00:00 13.8 8 Noroeste -- -- -- -- -- 48
2019-04-11 10:00:00 -- -- -- -- -- -- -- -- --
2019-04-11 09:00:00 10.7 8 Noroeste 21 Noroeste 0 -- -- 60
2019-04-11 08:00:00 7.8 6 Norte 15 Norte 0 -- -- 69
2019-04-11 07:00:00 6.9 3 Norte 12 Noroeste 0 -- -- 74
2019-04-11 06:00:00 6.3 0 Calma 17 Norte 0 -- -- 78
2019-04-11 05:00:00 6.9 8 Noroeste 19 Noroeste 0 -- -- 74
2019-04-11 04:00:00 8.1 5 Noroeste 28 Norte 0 -- -- 68
2019-04-11 03:00:00 7.8 9 Norte 29 Noroeste 0.1 -- -- 71
2019-04-11 02:00:00 8.5 8 Noroeste 25 Noroeste 0 -- -- 67
2019-04-11 01:00:00 8.7 9 Noroeste 22 Noroeste 0 -- -- 67
2019-04-11 00:00:00 9 9 Noroeste 18 Norte 0 -- -- 66
2019-04-10 23:00:00 10.2 3 Norte 19 Noroeste 0 -- -- 57
2019-04-10 22:00:00 10.4 8 Noroeste 15 Noroeste 0 -- -- 49
2019-04-10 21:00:00 10.8 4 Norte 16 Norte 0 -- -- 45
2019-04-10 20:00:00 11.8 10 Noroeste 25 Noroeste 0 -- -- 41
2019-04-10 19:00:00 12.3 13 Noroeste 28 Noroeste 0 -- -- 37
2019-04-10 18:00:00 13.9 12 Noroeste 31 Norte 0 -- -- 36
2019-04-10 17:00:00 14.1 13 Noroeste 28 Noroeste 0 -- -- 35
2019-04-10 16:00:00 17.2 7 Norte 24 Noroeste 0 -- -- 33
2019-04-10 15:00:00 16.8 10 Noroeste -- -- -- -- -- 33
2019-04-10 14:00:00 16.3 9 Noroeste 23 Norte 0 -- -- 35
2019-04-10 13:00:00 14.8 12 Noroeste 26 Noroeste 0 -- -- 38
2019-04-10 12:00:00 13.8 10 Norte 25 Noroeste 0 -- -- 42
2019-04-10 11:00:00 13.1 10 Noroeste 24 Norte 0 -- -- 46
2019-04-10 10:00:00 11.2 9 Noroeste -- -- -- -- -- 49
2019-04-10 09:00:00 9.9 8 Noroeste 19 Noroeste 0 -- -- 55
2019-04-10 08:00:00 7.5 7 Noroeste 21 Noroeste 0 -- -- 65
2019-04-10 07:00:00 7.4 8 Noroeste 22 Noroeste 0 -- -- 73
2019-04-10 06:00:00 7.8 10 Noroeste 24 Noroeste 0 -- -- 75
2019-04-10 05:00:00 8.5 9 Noroeste 24 Noroeste 0 -- -- 71
2019-04-10 04:00:00 8.7 8 Noroeste 19 Norte 0 -- -- 69
2019-04-10 03:00:00 8.7 8 Noroeste 14 Noroeste 0.1 -- -- 67
2019-04-10 02:00:00 9.2 7 Noroeste 26 Noroeste 0 -- -- 70
2019-04-10 01:00:00 10.3 8 Noroeste 22 Norte 0 -- -- 61
2019-04-10 00:00:00 10.1 9 Noroeste 22 Norte 0 -- -- 59
2019-04-09 23:00:00 10.3 9 Noroeste 19 Norte 0 -- -- 56
2019-04-09 22:00:00 10.6 7 Noroeste 27 Noroeste 0 -- -- 53
2019-04-09 21:00:00 11 11 Noroeste 27 Noroeste 0 -- -- 52
2019-04-09 20:00:00 11.5 17 Noroeste 35 Noroeste 0 -- -- 46
2019-04-09 19:00:00 13.5 14 Noroeste 36 Norte 0 -- -- 39
2019-04-09 18:00:00 14.3 15 Noroeste 37 Norte 0 -- -- 37
2019-04-09 17:00:00 15.3 13 Noroeste 32 Noroeste 0 -- -- 35
2019-04-09 16:00:00 15.8 12 Noroeste 29 Noroeste 0 -- -- 35
2019-04-09 15:00:00 15.9 11 Noroeste 27 Norte 0 -- -- 37
2019-04-09 14:00:00 16.3 6 Norte 30 Noroeste 0 -- -- 37
2019-04-09 13:00:00 14.9 11 Norte 24 Norte 0 -- -- 37
2019-04-09 12:00:00 12.3 11 Noroeste 24 Norte 0 -- -- 44
2019-04-09 11:00:00 13 10 Noroeste -- -- -- -- -- 45
2019-04-09 10:00:00 11.6 10 Noroeste -- -- -- -- -- 54
2019-04-09 09:00:00 9.9 9 Noroeste 23 Noroeste 0 -- -- 57
2019-04-09 08:00:00 8 11 Noroeste 23 Noroeste 0 -- -- 63
2019-04-09 07:00:00 8.2 9 Noroeste 21 Norte 0 -- -- 63
2019-04-09 06:00:00 8.5 7 Noroeste 24 Noroeste 0 -- -- 61
2019-04-09 05:00:00 8.4 9 Noroeste 21 Norte 0 -- -- 67
2019-04-09 04:00:00 8.9 9 Noroeste 16 Noroeste 0 -- -- 65
2019-04-09 03:00:00 9.7 5 Noroeste 20 Noroeste 0 -- -- 62
2019-04-09 02:00:00 10.2 8 Noroeste 23 Noroeste 0 -- -- 63
2019-04-09 01:00:00 11.1 10 Noroeste 24 Noroeste 0 -- -- 57
2019-04-09 00:00:00 11.4 5 Noroeste 17 Noroeste 0 -- -- 63
2019-04-08 23:00:00 11.9 6 Noroeste 14 Norte 0 -- -- 72
2019-04-08 22:00:00 11.6 5 Noroeste 18 Norte 0 -- -- 78
2019-04-08 21:00:00 12.5 6 Noroeste 17 Noroeste 0 -- -- 68
2019-04-08 20:00:00 13.7 5 Noroeste 18 Noroeste 0 -- -- 63
2019-04-08 19:00:00 13.8 9 Norte 21 Norte 0 -- -- 55
2019-04-08 18:00:00 16.4 6 Noroeste 26 Norte 0 -- -- 45
2019-04-08 17:00:00 16.8 8 Norte 27 Noroeste 0 -- -- 46
2019-04-08 16:00:00 16.7 8 Norte 22 Norte 0 -- -- 45
2019-04-08 15:00:00 17.1 10 Noroeste 23 Noroeste 0 -- -- 42
2019-04-08 14:00:00 16.9 9 Noroeste 20 Norte 0 -- -- 42
2019-04-08 13:00:00 18.6 5 Norte 24 Noroeste 0 -- -- 42
2019-04-08 12:00:00 15.4 7 Norte 27 Noroeste 0 -- -- 46
2019-04-08 11:00:00 12.7 8 Noroeste 17 Norte 0 -- -- 55
2019-04-08 10:00:00 11.9 8 Noroeste 17 Noroeste 0 -- -- 60
2019-04-08 09:00:00 11.1 3 Norte 16 Noroeste 0 -- -- 63
2019-04-08 08:00:00 10.4 5 Noroeste 19 Norte 0 -- -- 71
2019-04-08 07:00:00 10.6 5 Noroeste 19 Norte 0 -- -- 68
2019-04-08 06:00:00 10 3 Noroeste 14 Noroeste 0 -- -- 75
2019-04-08 05:00:00 10.2 3 Noroeste 13 Noroeste 0 -- -- 74
2019-04-08 04:00:00 10.6 3 Noroeste 13 Noroeste 0 -- -- 77
2019-04-08 03:00:00 10.8 0 Calma 13 Noroeste 0 -- -- 81
2019-04-08 02:00:00 10.6 5 Noroeste 11 Norte 0 -- -- 81
2019-04-08 01:00:00 10.3 3 Oeste 8 Oeste 0 -- -- 82
2019-04-08 00:00:00 10.5 0 Calma 5 Noroeste 0 -- -- 78
2019-04-07 23:00:00 10.9 2 Norte 10 Noroeste 0 -- -- 69
2019-04-07 22:00:00 10.9 3 Noroeste 15 Norte 0 -- -- 66
2019-04-07 21:00:00 11.3 6 Noroeste 16 Norte 0 -- -- 60
2019-04-07 20:00:00 11.6 2 Noroeste 14 Noroeste 0 -- -- 56
2019-04-07 19:00:00 11.8 6 Norte 20 Noroeste 0 -- -- 53
2019-04-07 18:00:00 11.8 9 Noroeste 30 Noroeste 0 -- -- 51
2019-04-07 17:00:00 13.3 11 Noroeste 30 Noroeste 0 -- -- 44
2019-04-07 16:00:00 14.2 14 Noroeste 33 Noroeste 0 -- -- 42
2019-04-07 15:00:00 13.1 11 Noroeste 32 Noroeste 0 -- -- 42
2019-04-07 14:00:00 11.9 12 Norte 28 Noroeste 0 -- -- 46
2019-04-07 13:00:00 11.1 13 Noroeste 40 Noroeste 0 -- -- 51
2019-04-07 12:00:00 11.1 15 Noroeste 40 Norte 0 -- -- 53
2019-04-07 11:00:00 9.4 18 Noroeste 42 Noroeste 0 -- -- 63
2019-04-07 10:00:00 8 19 Noroeste 50 Norte 0 -- -- 69
2019-04-07 09:00:00 6.9 20 Noroeste 40 Noroeste 0 -- -- 74
2019-04-07 08:00:00 5.1 17 Noroeste 36 Noroeste 0.1 -- -- 81
2019-04-07 07:00:00 4.9 17 Noroeste 39 Norte 0.1 -- -- 83
2019-04-07 06:00:00 5.4 17 Noroeste 41 Norte 0 -- -- 81
2019-04-07 05:00:00 5.3 16 Noroeste 28 Noroeste 0 -- -- 82
2019-04-07 04:00:00 5.5 13 Noroeste 31 Norte 0 -- -- 78
2019-04-07 03:00:00 5 9 Noroeste 20 Noroeste 0.1 -- -- 86
2019-04-07 02:00:00 5.2 8 Noroeste 21 Noroeste 0.5 -- -- 89
2019-04-07 01:00:00 5 8 Noroeste 20 Norte 0 -- -- 89
2019-04-07 00:00:00 5.1 9 Noroeste 26 Norte 1.1 -- -- 86
2019-04-06 23:00:00 5.6 6 Noroeste 24 Noroeste 0.1 -- -- 85
2019-04-06 22:00:00 4.9 14 Noroeste 27 Noroeste 1.4 -- -- 89
2019-04-06 21:00:00 6.6 9 Noroeste 21 Noroeste 0.1 -- -- 83
2019-04-06 20:00:00 6.7 4 Noroeste 17 Norte 0.9 -- -- 85
2019-04-06 19:00:00 6.1 8 Noroeste 30 Norte 1 -- -- 86
2019-04-06 18:00:00 9.8 11 Noroeste 26 Noroeste 0 -- -- 61
2019-04-06 17:00:00 9.4 8 Norte 29 Norte 0.3 -- -- 71
2019-04-06 16:00:00 11.6 9 Noroeste 26 Noroeste 0 -- -- 48
2019-04-06 15:00:00 11.8 10 Noroeste 37 Noroeste 0 -- -- 47
2019-04-06 14:00:00 12.7 11 Norte 27 Noroeste 0 -- -- 36
2019-04-06 13:00:00 13.9 11 Norte 25 Norte 0 -- -- 37
2019-04-06 12:00:00 11.9 11 Noroeste 28 Noroeste 0 -- -- 44
2019-04-06 11:00:00 10.6 15 Noroeste 37 Norte 0 -- -- 50
2019-04-06 10:00:00 8.3 14 Noroeste 35 Noroeste 0 -- -- 60
2019-04-06 09:00:00 5.9 14 Noroeste 30 Norte 0 -- -- 67
2019-04-06 08:00:00 4.8 16 Noroeste 39 Noroeste 0 -- -- 70
2019-04-06 07:00:00 4.7 14 Noroeste 30 Norte 0 -- -- 72
2019-04-06 06:00:00 4.6 13 Noroeste 26 Noroeste 0 -- -- 74
2019-04-06 05:00:00 4.9 8 Noroeste 26 Noroeste 0 -- -- 74
2019-04-06 04:00:00 4.3 13 Noroeste 28 Noroeste 0 -- -- 77
2019-04-06 03:00:00 5.5 13 Noroeste 24 Noroeste 0 -- -- 64
2019-04-06 02:00:00 5.6 6 Noroeste 21 Norte 0 -- -- 64
2019-04-06 01:00:00 5.8 3 Noroeste 19 Norte 0 -- -- 57
2019-04-06 00:00:00 6 5 Norte 18 Norte 0 -- -- 57
2019-04-05 23:00:00 5.7 8 Noroeste 19 Noroeste 0 -- -- 56
2019-04-05 22:00:00 6.2 0 Calma 25 Norte 0 -- -- 54
2019-04-05 21:00:00 6.4 11 Noroeste 24 Noroeste 0 -- -- 57
2019-04-05 20:00:00 7.1 10 Noroeste 25 Noroeste 0 -- -- 56
2019-04-05 19:00:00 9 9 Noroeste 26 Noroeste 0 -- -- 50
2019-04-05 18:00:00 9.1 8 Noroeste 22 Noroeste 0 -- -- 63
2019-04-05 17:00:00 8.2 3 Noroeste 19 Norte 0.4 -- -- 78
2019-04-05 16:00:00 7 7 Noroeste 26 Noroeste 2.3 -- -- 87
2019-04-05 15:00:00 9.1 3 Noroeste 12 Noroeste 0.2 -- -- 70
2019-04-05 14:00:00 7.6 6 Norte 25 Noroeste 0.9 -- -- 84
2019-04-05 13:00:00 11.2 3 Norte 19 Nordeste 0 -- -- 51
2019-04-05 12:00:00 10.9 9 Nordeste 19 Este 0 -- -- 44
2019-04-05 11:00:00 11.8 5 Nordeste 12 Sur 0 -- -- 42
2019-04-05 10:00:00 9.1 2 Noroeste 14 Noroeste 0 -- -- 52
2019-04-05 09:00:00 7.9 4 Noroeste 15 Norte 0 -- -- 56
2019-04-05 08:00:00 6.2 5 Norte 17 Noroeste 0 -- -- 60
2019-04-05 07:00:00 6.7 3 Norte 15 Nordeste 0 -- -- 56
2019-04-05 06:00:00 7.3 4 Noroeste 16 Norte 0 -- -- 49
2019-04-05 05:00:00 8.2 7 Noroeste 18 Norte 0 -- -- 51
2019-04-05 04:00:00 8.5 3 Noroeste 14 Oeste 0 -- -- 56
2019-04-05 03:00:00 8.8 0 Calma 4 Norte 0 -- -- 90
2019-04-05 02:00:00 8.6 0 Calma 6 Nordeste 0 -- -- 92
2019-04-05 01:00:00 8.8 0 Calma 10 Nordeste 0 -- -- 91
2019-04-05 00:00:00 9.1 5 Este 11 Nordeste 0 -- -- 91
2019-04-04 23:00:00 9.1 4 Este 15 Este 0 -- -- 91
2019-04-04 22:00:00 9 8 Este 19 Este 0 -- -- 89
2019-04-04 21:00:00 9 8 Nordeste 26 Este 0 -- -- 87
2019-04-04 20:00:00 9.3 12 Este 25 Este 0 -- -- 84
2019-04-04 19:00:00 10.1 13 Nordeste 32 Este 0 -- -- 75
2019-04-04 18:00:00 11.4 18 Este 39 Nordeste 0 -- -- 67
2019-04-04 17:00:00 12.6 17 Nordeste 36 Este 0 -- -- 61
2019-04-04 16:00:00 12.6 18 Nordeste 39 Este 0 -- -- 60
2019-04-04 15:00:00 13.5 17 Nordeste 35 Nordeste 0 -- -- 56
2019-04-04 14:00:00 14.4 16 Este 31 Este 0 -- -- 55
2019-04-04 13:00:00 13.8 13 Este 27 Este 0 -- -- 54
2019-04-04 12:00:00 12.5 10 Este 23 Este 0 -- -- 53
2019-04-04 11:00:00 13 7 Nordeste 23 Este 0 -- -- 47
2019-04-04 10:00:00 12.3 0 Calma 8 Nordeste 0 -- -- 49
2019-04-04 09:00:00 9.4 2 Norte 14 Norte 0 -- -- 57
2019-04-04 08:00:00 7.2 4 Norte 14 Noroeste 0 -- -- 64
2019-04-04 07:00:00 7.2 6 Noroeste 14 Noroeste 0 -- -- 64
2019-04-04 06:00:00 8.3 2 Noroeste 13 Noroeste 0 -- -- 61
2019-04-04 05:00:00 9.1 0 Calma 10 Noroeste 0 -- -- 57
2019-04-04 04:00:00 10.4 4 Noroeste 19 Noroeste 0 -- -- 52
2019-04-04 03:00:00 11.2 6 Norte 23 Norte 0 -- -- 50
2019-04-04 02:00:00 11.6 6 Noroeste 25 Noroeste 0 -- -- 49
2019-04-04 01:00:00 12 12 Noroeste 23 Noroeste 0 -- -- 46
2019-04-04 00:00:00 12.8 8 Noroeste 25 Norte 0 -- -- 44
2019-04-03 23:00:00 13.4 12 Noroeste 25 Norte 0 -- -- 41
2019-04-03 22:00:00 14.5 9 Noroeste 25 Noroeste 0 -- -- 38
2019-04-03 21:00:00 15.4 10 Noroeste 26 Noroeste 0 -- -- 33
2019-04-03 20:00:00 17 13 Noroeste 26 Norte 0 -- -- 31
2019-04-03 19:00:00 18.9 8 Noroeste 22 Noroeste 0 -- -- 28
2019-04-03 18:00:00 20.3 9 Noroeste 25 Noroeste 0 -- -- 27
2019-04-03 17:00:00 20.2 6 Norte 21 Norte 0 -- -- 23
2019-04-03 16:00:00 21.5 6 Noroeste 21 Nordeste 0 -- -- 24
2019-04-03 15:00:00 20.8 4 Nordeste 14 Nordeste 0 -- -- 30
2019-04-03 14:00:00 20.9 3 Norte 12 Oeste 0 -- -- 30
2019-04-03 13:00:00 19.3 4 Norte 12 Nordeste 0 -- -- 31
2019-04-03 12:00:00 18.5 3 Noroeste 16 Oeste 0 -- -- 35
2019-04-03 11:00:00 17.1 5 Noroeste 16 Norte 0 -- -- 41
2019-04-03 10:00:00 14.7 5 Noroeste 15 Noroeste 0 -- -- 49
2019-04-03 09:00:00 11.5 6 Noroeste 15 Noroeste 0 -- -- 54
2019-04-03 08:00:00 9.1 3 Norte 13 Noroeste 0 -- -- 62
2019-04-03 07:00:00 9.8 2 Noroeste 11 Oeste 0 -- -- 60
2019-04-03 06:00:00 10 3 Noroeste 10 Norte 0 -- -- 60
2019-04-03 05:00:00 10.2 0 Calma 12 Noroeste 0 -- -- 61
2019-04-03 04:00:00 10.4 3 Norte 12 Noroeste 0 -- -- 63
2019-04-03 03:00:00 10.7 4 Norte 15 Noroeste 0 -- -- 63
2019-04-03 02:00:00 11.3 5 Noroeste 14 Norte 0 -- -- 63
2019-04-03 01:00:00 12.1 4 Noroeste 15 Oeste 0 -- -- 56
2019-04-03 00:00:00 13.1 4 Noroeste 14 Oeste 0 -- -- 50
2019-04-02 23:00:00 13.7 3 Noroeste 12 Norte 0 -- -- 49
2019-04-02 22:00:00 14.6 0 Calma 9 Noroeste 0 -- -- 47
2019-04-02 21:00:00 13.9 0 Calma 10 Nordeste 0 -- -- 55
2019-04-02 20:00:00 15.4 0 Calma 12 Nordeste 0 -- -- 45
2019-04-02 19:00:00 17 3 Nordeste 12 Este 0 -- -- 38
2019-04-02 18:00:00 18.6 3 Norte 13 Oeste 0 -- -- 30
2019-04-02 17:00:00 18.9 3 Norte 15 Norte 0 -- -- 31
2019-04-02 16:00:00 18.4 3 Norte 13 Norte 0 -- -- 28
2019-04-02 15:00:00 20.6 4 Norte 15 Este 0 -- -- 26
2019-04-02 14:00:00 18.5 2 Nordeste 15 Noroeste 0 -- -- 27
2019-04-02 13:00:00 17.5 0 Calma 14 Noroeste 0 -- -- 28
2019-04-02 12:00:00 16.2 0 Calma 12 Noroeste 0.1 -- -- 33
2019-04-02 11:00:00 14.3 0 Calma 8 Noroeste 0 -- -- 48
2019-04-02 10:00:00 12.6 0 Calma 8 Noroeste 0 -- -- 57
2019-04-02 09:00:00 9.8 3 Noroeste 14 Noroeste 0 -- -- 67
2019-04-02 08:00:00 6.2 8 Noroeste 15 Norte 0 -- -- 80
2019-04-02 07:00:00 7.8 5 Oeste 14 Oeste 0 -- -- 74
2019-04-02 06:00:00 7.7 4 Noroeste 9 Oeste 0 -- -- 77
2019-04-02 05:00:00 7.9 2 Norte 13 Oeste 0 -- -- 80
2019-04-02 04:00:00 8.5 3 Noroeste 14 Noroeste 0 -- -- 78
2019-04-02 03:00:00 9.1 2 Noroeste 10 Noroeste 0 -- -- 74
2019-04-02 02:00:00 9 2 Noroeste 10 Noroeste 0 -- -- 79
2019-04-02 01:00:00 9.8 0 Calma 11 Oeste 0 -- -- 73
2019-04-02 00:00:00 9.7 0 Calma 10 Oeste 0 -- -- 75
2019-04-01 23:00:00 9.4 2 Noroeste 8 Norte 0 -- -- 82
2019-04-01 22:00:00 9.9 2 Noroeste 9 Noroeste 0 -- -- 84
2019-04-01 21:00:00 10.3 2 Noroeste 10 Noroeste 0 -- -- 85
2019-04-01 20:00:00 10.2 0 Calma 16 Nordeste 3.4 -- -- 86
2019-04-01 19:00:00 12.4 9 Nordeste 30 Nordeste 0.2 -- -- 84
2019-04-01 18:00:00 13.9 14 Nordeste 30 Este 0 -- -- 67
2019-04-01 17:00:00 15.4 11 Nordeste 23 Nordeste 0 -- -- 53
2019-04-01 16:00:00 15.1 7 Nordeste 23 Este 0 -- -- 54
2019-04-01 15:00:00 15.8 8 Nordeste 23 Este 0 -- -- 49
2019-04-01 14:00:00 16.1 10 Nordeste 22 Este 0 -- -- 52
2019-04-01 13:00:00 14.6 6 Nordeste 14 Nordeste 0 -- -- 56
2019-04-01 12:00:00 12.5 5 Nordeste 15 Nordeste 0 -- -- 67
2019-04-01 11:00:00 12.1 8 Este 16 Este 0 -- -- 71
2019-04-01 10:00:00 10.3 6 Este 14 Este 0 -- -- 79
2019-04-01 09:00:00 10.1 0 Calma 14 Noroeste 0 -- -- 68
2019-04-01 08:00:00 8.8 5 Noroeste 13 Noroeste 0 -- -- 76
2019-04-01 07:00:00 9.2 0 Calma 11 Noroeste 0 -- -- 82
2019-04-01 06:00:00 9.2 3 Norte 11 Norte 0 -- -- 85
2019-04-01 05:00:00 8.3 0 Calma 9 Noroeste 0 -- -- 87
2019-04-01 04:00:00 8.1 0 Calma 9 Oeste 0 -- -- 91
2019-04-01 03:00:00 9.2 0 Calma 2 Norte 0 -- -- 94
2019-04-01 02:00:00 9.2 0 Calma 4 Noroeste 0 -- -- 94
2019-04-01 01:00:00 9.3 0 Calma 7 Este 0 -- -- 94
2019-04-01 00:00:00 9.4 0 Calma 11 Nordeste 0 -- -- 94
2019-03-31 23:00:00 10 0 Calma 7 Este 0.1 -- -- 91
2019-03-31 22:00:00 10.2 0 Calma 9 Noroeste 0.7 -- -- 85
2019-03-31 21:00:00 10.9 0 Calma 9 Noroeste 0.2 -- -- 79
2019-03-31 20:00:00 11.9 0 Calma 14 Noroeste 0 -- -- 70
2019-03-31 19:00:00 12.9 2 Noroeste 9 Noroeste 0.1 -- -- 71
2019-03-31 18:00:00 11.8 4 Norte 15 Noroeste 0.2 -- -- 82
2019-03-31 17:00:00 11.9 5 Norte 10 Norte 0 -- -- 82
2019-03-31 16:00:00 10.7 0 Calma 8 Este 0.4 -- -- 91
2019-03-31 15:00:00 10.8 0 Calma 10 Este 0 -- -- 88
2019-03-31 14:00:00 11 0 Calma 6 Nordeste 0.2 -- -- 89
2019-03-31 13:00:00 10.6 0 Calma 4 Este 0.5 -- -- 91
2019-03-31 12:00:00 9.5 0 Calma 5 Norte 0.2 -- -- 94
2019-03-31 11:00:00 9.3 0 Calma -- -- -- -- -- 94
2019-03-31 10:00:00 8.7 0 Calma 6 Nordeste 0.4 -- -- 95
2019-03-31 09:00:00 8.3 0 Calma 4 Nordeste 0.8 -- -- 95
2019-03-31 08:00:00 8.1 0 Calma 6 Nordeste 0.3 -- -- 95
2019-03-31 07:00:00 7.6 0 Calma 7 Nordeste 0.2 -- -- 95
2019-03-31 06:00:00 8 0 Calma 6 Este 0.7 -- -- 94
2019-03-31 05:00:00 8.3 0 Calma 7 Este 0.7 -- -- 93
2019-03-31 03:00:00 8.5 4 Nordeste 19 Nordeste 0 -- -- 88
2019-03-31 01:00:00 8.3 10 Este 22 Este 0.3 -- -- 96
2019-03-31 00:00:00 9 10 Este 21 Este 0 -- -- 93
2019-03-30 23:00:00 9.8 8 Este 20 Nordeste 0 -- -- 83
2019-03-30 22:00:00 10.5 9 Nordeste 25 Este 0 -- -- 77
2019-03-30 21:00:00 11 14 Nordeste 29 Este 0 -- -- 71
2019-03-30 20:00:00 12 9 Nordeste 23 Nordeste 0 -- -- 62
2019-03-30 19:00:00 13.2 12 Este 24 Este 0 -- -- 52
2019-03-30 18:00:00 14.3 13 Nordeste 41 Nordeste 0 -- -- 50
2019-03-30 17:00:00 14.1 19 Nordeste 43 Nordeste 0 -- -- 50
2019-03-30 16:00:00 14.8 23 Este 44 Este 0 -- -- 50
2019-03-30 15:00:00 15.8 21 Este 44 Este 0 -- -- 47
2019-03-30 14:00:00 15.4 23 Nordeste 41 Este 0 -- -- 45
2019-03-30 13:00:00 15.4 14 Nordeste 31 Este 0 -- -- 44
2019-03-30 12:00:00 12.7 15 Nordeste 30 Este 0 -- -- 49
2019-03-30 11:00:00 10.6 14 Este 36 Este 0 -- -- 54
2019-03-30 10:00:00 10 14 Este 26 Nordeste 0 -- -- 52
2019-03-30 09:00:00 10 7 Nordeste 16 Nordeste 0 -- -- 61
2019-03-30 08:00:00 6.5 0 Calma 8 Noroeste 0 -- -- 73
2019-03-30 07:00:00 4.4 4 Noroeste 12 Noroeste 0 -- -- 82
2019-03-30 06:00:00 5 0 Calma 9 Noroeste 0 -- -- 77
2019-03-30 05:00:00 5.4 2 Norte 15 Nordeste 0 -- -- 76
2019-03-30 04:00:00 5.8 11 Nordeste 24 Nordeste 0 -- -- 80
2019-03-30 03:00:00 5.9 4 Nordeste 26 Nordeste 0 -- -- 89
2019-03-30 02:00:00 6 10 Nordeste 25 Nordeste 0 -- -- 93
2019-03-30 01:00:00 6.4 11 Nordeste 24 Este 0 -- -- 93
2019-03-30 00:00:00 7.4 9 Nordeste 21 Este 0 -- -- 91
2019-03-29 23:00:00 8.4 10 Nordeste 23 Este 0 -- -- 88
2019-03-29 22:00:00 8.3 11 Nordeste 23 Este 0 -- -- 87
2019-03-29 21:00:00 8.4 8 Este 20 Este 0 -- -- 81
2019-03-29 20:00:00 9.6 10 Nordeste 29 Este 0 -- -- 75
2019-03-29 19:00:00 11 14 Este 28 Este 0 -- -- 64
2019-03-29 18:00:00 12.5 12 Nordeste 31 Este 0 -- -- 59
2019-03-29 17:00:00 13.3 14 Nordeste 33 Este 0 -- -- 55
2019-03-29 16:00:00 14.1 14 Nordeste 34 Nordeste 0 -- -- 49
2019-03-29 15:00:00 14 18 Nordeste 41 Nordeste 0 -- -- 45
2019-03-29 14:00:00 15 15 Nordeste 40 Nordeste 0 -- -- 44
2019-03-29 13:00:00 14.7 18 Este 40 Este 0 -- -- 43
2019-03-29 12:00:00 13.1 16 Nordeste 39 Nordeste 0 -- -- 45
2019-03-29 11:00:00 12.1 17 Nordeste 39 Este 0 -- -- 50
2019-03-29 10:00:00 10.8 18 Nordeste 36 Nordeste 0 -- -- 52
2019-03-29 09:00:00 10 14 Nordeste 35 Este 0 -- -- 55
2019-03-29 08:00:00 6.6 9 Este 17 Este 0 -- -- 61
2019-03-29 07:00:00 4.9 6 Nordeste 25 Nordeste 0 -- -- 60
2019-03-29 06:00:00 7.4 13 Nordeste 31 Nordeste 0 -- -- 56
2019-03-29 05:00:00 5.6 8 Nordeste 23 Nordeste 0 -- -- 55
2019-03-29 04:00:00 5.4 3 Nordeste 11 Nordeste 0 -- -- 53
2019-03-29 03:00:00 5.5 3 Norte 8 Nordeste 0 -- -- 54
2019-03-29 02:00:00 5.2 0 Calma 8 Norte 0 -- -- 55
2019-03-29 01:00:00 5.9 0 Calma 10 Norte 0 -- -- 55
2019-03-29 00:00:00 6.9 2 Norte 23 Nordeste 0 -- -- 49
2019-03-28 23:00:00 8.8 10 Nordeste 31 Nordeste 0 -- -- 37
2019-03-28 22:00:00 9.1 15 Nordeste 32 Nordeste 0 -- -- 37
2019-03-28 21:00:00 9.2 11 Nordeste 29 Nordeste 0 -- -- 43
2019-03-28 20:00:00 9.8 10 Norte 32 Norte 0 -- -- 45
2019-03-28 19:00:00 11.3 15 Norte 37 Nordeste 0 -- -- 39
2019-03-28 18:00:00 12.3 13 Norte 62 Nordeste 0 -- -- 38
2019-03-28 17:00:00 13 15 Nordeste 30 Nordeste 0 -- -- 34
2019-03-28 16:00:00 13.9 14 Nordeste 37 Nordeste 0 -- -- 32
2019-03-28 15:00:00 13.5 14 Nordeste 36 Este 0 -- -- 31
2019-03-28 14:00:00 13.8 13 Nordeste 32 Noroeste 0 -- -- 32
2019-03-28 13:00:00 12.8 13 Nordeste 39 Nordeste 0 -- -- 29
2019-03-28 12:00:00 12.8 15 Nordeste 41 Nordeste 0 -- -- 27
2019-03-28 11:00:00 11.9 14 Nordeste 36 Norte 0 -- -- 27
2019-03-28 10:00:00 10.9 14 Nordeste 33 Nordeste 0 -- -- 28
2019-03-28 09:00:00 9.5 8 Nordeste 24 Este 0 -- -- 37
2019-03-28 08:00:00 5.2 0 Calma 7 Norte 0 -- -- 62
2019-03-28 07:00:00 2.7 0 Calma 7 Noroeste 0 -- -- 74
2019-03-28 06:00:00 3.4 0 Calma 5 Este 0 -- -- 73
2019-03-28 05:00:00 3.3 0 Calma 6 Oeste 0 -- -- 66
2019-03-28 04:00:00 3.3 0 Calma 8 Oeste 0 -- -- 72
2019-03-28 03:00:00 3.3 4 Noroeste 11 Noroeste 0 -- -- 78
2019-03-28 02:00:00 4.7 3 Noroeste 11 Noroeste 0 -- -- 77
2019-03-28 01:00:00 5.7 2 Noroeste 10 Norte 0 -- -- 69
2019-03-28 00:00:00 6.1 2 Noroeste 8 Oeste 0 -- -- 71
2019-03-27 23:00:00 6.5 3 Sudoeste 10 Sudeste 0 -- -- 72
2019-03-27 22:00:00 7.2 5 Sudeste 15 Este 0 -- -- 83
2019-03-27 21:00:00 8.1 7 Este 22 Este 0 -- -- 77
2019-03-27 20:00:00 9.9 8 Este 17 Este 0 -- -- 58
2019-03-27 19:00:00 12 7 Nordeste 23 Este 0 -- -- 49
2019-03-27 18:00:00 13.3 11 Nordeste 27 Nordeste 0 -- -- 43
2019-03-27 17:00:00 13.6 12 Nordeste 31 Nordeste 0 -- -- 43
2019-03-27 16:00:00 13.7 13 Sudeste 35 Sudeste 0 -- -- 39
2019-03-27 15:00:00 14.4 13 Sudeste 36 Este 0 -- -- 35
2019-03-27 14:00:00 15.1 17 Nordeste 40 Sudeste 0 -- -- 32
2019-03-27 13:00:00 14.6 13 Sudeste 44 Nordeste 0 -- -- 35
2019-03-27 12:00:00 12.4 19 Nordeste 45 Este 0 -- -- 35
2019-03-27 11:00:00 11.1 17 Sudeste 39 Sudeste 0 -- -- 36
2019-03-27 10:00:00 11.1 10 Este 29 Este 0 -- -- 38
2019-03-27 09:00:00 9.7 5 Nordeste 20 Sudoeste 0 -- -- 48
2019-03-27 08:00:00 7.4 12 Sur 27 Sur 0 -- -- 52
2019-03-27 07:00:00 6 9 Sur 19 Sur 0 -- -- 52
2019-03-27 06:00:00 5.5 0 Calma 18 Sur 0 -- -- 51
2019-03-27 05:00:00 5.7 0 Calma 9 Sur 0 -- -- 56
2019-03-27 04:00:00 6 0 Calma 14 Sudeste 0 -- -- 56
2019-03-27 03:00:00 6.3 3 Nordeste 19 Este 0 -- -- 65
2019-03-27 02:00:00 6.4 5 Este 16 Sudeste 0 -- -- 67
2019-03-27 01:00:00 6.9 2 Este 14 Sudeste 0 -- -- 67
2019-03-27 00:00:00 8 4 Este 12 Este 0 -- -- 78